Time;durP1;ratioP1;P1;durP2;ratioP2;P2;SDS_P1;SDS_P2;PMS_P1;PMS_P2;Temp;Humidity;BMP_temperature;BMP_pressure;BME280_temperature;BME280_humidity;BME280_pressure;Samples;Min_cycle;Max_cycle;Signal;HPM_P1;HPM_P2
2023/04/22 00:02:08;;;;;;;7.47;3.30;;;11.20;99.90;;;;;;4919068;29;20059;-77
2023/04/22 00:04:35;;;;;;;12.45;4.25;;;11.20;99.90;;;;;;4935995;29;20050;-77
2023/04/22 00:07:04;;;;;;;10.52;4.07;;;11.20;99.90;;;;;;4949854;28;20062;-77
2023/04/22 00:09:32;;;;;;;8.60;4.00;;;11.20;99.90;;;;;;4934924;29;20090;-77
2023/04/22 00:12:00;;;;;;;13.63;3.70;;;11.20;99.90;;;;;;4932926;29;20428;-77
2023/04/22 00:14:28;;;;;;;11.85;3.40;;;11.20;99.90;;;;;;4951873;29;20062;-76
2023/04/22 00:16:56;;;;;;;12.18;3.70;;;11.20;99.90;;;;;;4951368;28;20063;-76
2023/04/22 00:19:23;;;;;;;10.98;3.75;;;11.20;99.90;;;;;;4944324;28;20051;-77
2023/04/22 00:21:51;;;;;;;10.80;3.75;;;11.30;99.90;;;;;;4952004;29;20058;-77
2023/04/22 00:24:20;;;;;;;8.50;3.30;;;11.30;99.90;;;;;;4944671;29;20047;-77
2023/04/22 00:26:47;;;;;;;7.53;3.47;;;11.30;99.90;;;;;;4948690;28;20572;-77
2023/04/22 00:29:14;;;;;;;9.57;3.80;;;11.30;99.90;;;;;;4953239;29;20058;-76
2023/04/22 00:31:42;;;;;;;8.38;3.55;;;11.30;99.90;;;;;;4919919;29;20146;-76
2023/04/22 00:34:09;;;;;;;4.72;3.10;;;11.30;99.90;;;;;;4950006;29;20521;-76
2023/04/22 00:36:37;;;;;;;5.88;3.20;;;11.30;99.90;;;;;;4959243;28;20051;-76
2023/04/22 00:39:05;;;;;;;7.85;3.55;;;11.30;99.90;;;;;;4951504;29;20547;-76
2023/04/22 00:41:34;;;;;;;5.50;3.13;;;11.30;99.90;;;;;;4949947;29;20039;-77
2023/04/22 00:44:02;;;;;;;8.25;3.53;;;11.30;99.90;;;;;;4948317;28;20153;-78
2023/04/22 00:46:29;;;;;;;10.55;3.53;;;11.40;99.90;;;;;;4915210;29;20078;-77
2023/04/22 00:48:57;;;;;;;9.02;3.25;;;11.40;99.90;;;;;;4952807;29;20504;-77
2023/04/22 00:51:24;;;;;;;5.70;3.33;;;11.30;99.90;;;;;;4951869;28;20075;-77
2023/04/22 00:53:52;;;;;;;7.88;3.50;;;11.30;99.90;;;;;;4942000;29;20047;-77
2023/04/22 00:56:20;;;;;;;10.50;4.95;;;11.30;99.90;;;;;;4952173;28;20047;-77
2023/04/22 00:58:49;;;;;;;9.10;5.18;;;11.30;99.90;;;;;;4951302;29;20150;-77
2023/04/22 01:01:17;;;;;;;10.45;4.90;;;11.20;99.90;;;;;;4945380;29;20055;-77
2023/04/22 01:03:48;;;;;;;9.65;5.55;;;11.20;99.90;;;;;;4946559;29;20071;-77
2023/04/22 01:06:15;;;;;;;13.10;5.47;;;11.20;99.90;;;;;;4926383;29;20504;-77
2023/04/22 01:08:43;;;;;;;9.95;5.55;;;11.20;99.90;;;;;;4951607;29;20093;-77
2023/04/22 01:11:10;;;;;;;7.97;5.25;;;11.20;99.90;;;;;;4949019;29;20059;-77
2023/04/22 01:13:38;;;;;;;12.30;5.00;;;11.20;99.90;;;;;;4915622;29;20048;-77
2023/04/22 01:16:08;;;;;;;8.77;4.00;;;11.20;99.90;;;;;;4925187;29;20059;-77
2023/04/22 01:18:36;;;;;;;12.82;4.18;;;11.10;99.90;;;;;;4933478;29;20059;-77
2023/04/22 01:21:04;;;;;;;10.13;4.50;;;11.20;99.90;;;;;;4949257;28;20056;-77
2023/04/22 01:23:33;;;;;;;11.90;4.65;;;11.10;99.90;;;;;;4952000;29;20067;-76
2023/04/22 01:26:01;;;;;;;8.73;4.20;;;11.10;99.90;;;;;;4940801;29;20401;-76
2023/04/22 01:28:30;;;;;;;13.63;5.07;;;11.10;99.90;;;;;;4938111;29;20101;-76
2023/04/22 01:30:57;;;;;;;6.20;4.80;;;11.20;99.90;;;;;;4944978;28;20047;-76
2023/04/22 01:33:25;;;;;;;11.02;5.20;;;11.20;99.90;;;;;;4967170;28;20064;-76
2023/04/22 01:35:52;;;;;;;17.52;4.80;;;11.20;99.90;;;;;;4949782;29;20573;-76
2023/04/22 01:38:20;;;;;;;15.52;4.43;;;11.20;99.90;;;;;;4948444;29;20409;-76
2023/04/22 01:40:49;;;;;;;10.98;4.35;;;11.20;99.90;;;;;;4940352;28;20043;-76
2023/04/22 01:43:17;;;;;;;27.15;4.28;;;11.20;99.90;;;;;;4951906;29;20055;-76
2023/04/22 01:45:44;;;;;;;8.23;3.92;;;11.20;99.90;;;;;;4951450;28;20086;-76
2023/04/22 01:48:12;;;;;;;7.13;4.25;;;11.20;99.90;;;;;;4936397;29;20059;-76
2023/04/22 01:50:39;;;;;;;6.65;3.15;;;11.20;99.90;;;;;;4952011;29;20047;-76
2023/04/22 01:53:08;;;;;;;3.75;2.97;;;11.20;99.90;;;;;;4951766;28;20055;-77
2023/04/22 01:55:36;;;;;;;11.43;4.00;;;11.20;99.90;;;;;;4950985;28;20075;-77
2023/04/22 01:58:05;;;;;;;4.75;3.60;;;11.20;99.90;;;;;;4923659;29;20059;-77
2023/04/22 02:00:33;;;;;;;9.02;4.20;;;11.20;99.90;;;;;;4954671;28;20118;-77
2023/04/22 02:03:00;;;;;;;10.15;4.18;;;11.10;99.90;;;;;;4951061;29;20078;-77
2023/04/22 02:05:28;;;;;;;10.90;3.50;;;11.10;99.90;;;;;;4949518;29;20050;-77
2023/04/22 02:07:55;;;;;;;9.60;3.67;;;11.00;99.90;;;;;;4917314;29;20082;-79
2023/04/22 02:10:23;;;;;;;7.28;3.63;;;11.00;99.90;;;;;;4917003;29;20428;-79
2023/04/22 02:12:51;;;;;;;5.78;3.38;;;11.00;99.90;;;;;;4951544;29;20055;-79
2023/04/22 02:15:21;;;;;;;7.90;4.53;;;11.00;99.90;;;;;;4932166;29;20043;-79
2023/04/22 02:17:49;;;;;;;6.55;3.53;;;11.00;99.90;;;;;;4951608;29;20061;-79
2023/04/22 02:20:16;;;;;;;5.93;3.20;;;11.00;99.90;;;;;;4929967;29;20449;-79
2023/04/22 02:22:45;;;;;;;12.25;3.92;;;11.00;99.90;;;;;;4950369;29;20051;-79
2023/04/22 02:25:13;;;;;;;6.93;3.50;;;10.90;99.90;;;;;;4918043;29;20048;-79
2023/04/22 02:27:41;;;;;;;6.30;3.38;;;11.00;99.90;;;;;;4902703;29;20062;-77
2023/04/22 02:30:10;;;;;;;9.35;4.20;;;11.00;99.90;;;;;;4933889;29;20043;-77
2023/04/22 02:32:39;;;;;;;6.57;4.07;;;11.00;99.90;;;;;;4950855;29;20109;-77
2023/04/22 02:35:07;;;;;;;11.80;3.85;;;11.00;99.90;;;;;;4929748;29;20087;-77
2023/04/22 02:37:35;;;;;;;9.15;3.65;;;11.00;99.90;;;;;;4951523;29;20055;-77
2023/04/22 02:40:03;;;;;;;8.43;4.03;;;11.00;99.90;;;;;;4918466;29;20047;-77
2023/04/22 02:42:32;;;;;;;14.82;4.30;;;11.00;99.90;;;;;;4915405;29;20539;-77
2023/04/22 02:45:02;;;;;;;8.20;3.67;;;11.00;99.90;;;;;;4933861;29;20138;-76
2023/04/22 02:47:33;;;;;;;7.93;3.50;;;11.00;99.90;;;;;;4950191;29;20055;-77
2023/04/22 02:50:02;;;;;;;7.97;3.50;;;11.00;99.90;;;;;;4949884;29;20055;-77
2023/04/22 02:52:31;;;;;;;9.45;3.80;;;11.00;99.90;;;;;;4940859;29;20322;-77
2023/04/22 02:54:58;;;;;;;5.95;3.45;;;11.00;99.90;;;;;;4931990;29;20047;-76
2023/04/22 02:57:26;;;;;;;8.98;2.88;;;11.00;99.90;;;;;;4932174;29;20059;-77
2023/04/22 02:59:53;;;;;;;8.50;3.40;;;10.90;99.90;;;;;;4930366;29;20047;-77
2023/04/22 03:02:22;;;;;;;5.80;2.80;;;10.90;99.90;;;;;;4927094;29;20053;-75
2023/04/22 03:05:06;;;;;;;8.00;3.13;;;10.90;99.90;;;;;;4933461;29;20047;-76
2023/04/22 03:07:34;;;;;;;6.50;3.05;;;10.90;99.90;;;;;;4933093;29;20415;-77
2023/04/22 03:10:03;;;;;;;7.65;3.10;;;10.90;99.90;;;;;;4915918;29;20107;-76
2023/04/22 03:12:31;;;;;;;10.48;3.60;;;10.90;99.90;;;;;;4932954;29;20051;-76
2023/04/22 03:14:59;;;;;;;9.98;3.17;;;10.90;99.90;;;;;;4933339;29;20582;-76
2023/04/22 03:17:33;;;;;;;6.47;2.90;;;10.90;99.90;;;;;;4933307;29;20078;-77
2023/04/22 03:20:06;;;;;;;7.00;3.60;;;10.90;99.90;;;;;;4941438;28;20061;-76
2023/04/22 03:22:34;;;;;;;7.22;3.22;;;10.90;99.90;;;;;;4968444;28;20491;-76
2023/04/22 03:25:05;;;;;;;8.27;3.15;;;10.90;99.90;;;;;;4952275;28;20058;-75
2023/04/22 03:27:34;;;;;;;5.53;2.83;;;10.90;99.90;;;;;;4958790;28;20106;-77
2023/04/22 03:30:01;;;;;;;7.93;2.95;;;10.90;99.90;;;;;;4950732;29;20134;-77
2023/04/22 03:32:33;;;;;;;24.88;4.30;;;10.80;99.90;;;;;;4952946;29;20608;-77
2023/04/22 03:35:16;;;;;;;7.78;3.10;;;10.80;99.90;;;;;;4935186;29;20134;-77
2023/04/22 03:37:47;;;;;;;31.57;5.20;;;10.90;99.90;;;;;;4934985;29;20754;-76
2023/04/22 03:40:19;;;;;;;5.23;3.50;;;10.90;99.90;;;;;;4920385;29;20420;-76
2023/04/22 03:42:47;;;;;;;6.88;3.00;;;10.90;99.90;;;;;;4919229;29;20136;-76
2023/04/22 03:45:16;;;;;;;7.38;3.20;;;10.90;99.90;;;;;;4936625;29;20055;-77
2023/04/22 03:47:47;;;;;;;8.00;3.88;;;11.00;99.90;;;;;;4935411;29;20047;-77
2023/04/22 03:50:24;;;;;;;54.30;6.13;;;11.00;99.90;;;;;;4952355;29;20516;-77
2023/04/22 03:52:54;;;;;;;7.35;3.28;;;11.00;99.90;;;;;;4919526;29;20051;-77
2023/04/22 03:55:22;;;;;;;11.55;3.90;;;11.10;99.90;;;;;;4950619;29;20043;-77
2023/04/22 03:57:52;;;;;;;6.88;3.50;;;11.10;99.90;;;;;;4952006;29;20057;-77
2023/04/22 04:00:20;;;;;;;7.32;3.35;;;11.20;99.90;;;;;;4934370;29;20098;-77
2023/04/22 04:02:56;;;;;;;4.82;2.83;;;11.30;99.90;;;;;;4949452;29;20452;-77
2023/04/22 04:05:28;;;;;;;6.93;3.83;;;11.40;99.90;;;;;;4952862;29;20428;-77
2023/04/22 04:07:56;;;;;;;9.65;3.42;;;11.40;99.90;;;;;;4953061;29;20054;-77
2023/04/22 04:10:25;;;;;;;7.88;3.03;;;11.50;99.90;;;;;;4949044;29;20055;-76
2023/04/22 04:12:54;;;;;;;6.32;2.88;;;11.60;99.90;;;;;;4925846;29;20075;-76
2023/04/22 04:15:23;;;;;;;6.22;3.40;;;11.60;99.90;;;;;;4951869;29;20066;-77
2023/04/22 04:17:52;;;;;;;6.03;3.10;;;11.60;99.90;;;;;;4951432;28;20087;-77
2023/04/22 04:20:20;;;;;;;8.00;3.90;;;11.70;99.90;;;;;;4949331;29;20047;-77
2023/04/22 04:22:49;;;;;;;5.65;3.95;;;11.80;99.90;;;;;;4947946;28;20055;-78
2023/04/22 04:25:20;;;;;;;3.90;2.75;;;11.90;99.90;;;;;;4948627;29;20062;-79
2023/04/22 04:27:49;;;;;;;4.45;3.05;;;12.00;99.90;;;;;;4933629;28;20079;-85
2023/04/22 04:30:16;;;;;;;6.70;2.95;;;12.00;99.90;;;;;;4934095;29;20508;-80
2023/04/22 04:32:52;;;;;;;7.85;3.28;;;11.90;99.90;;;;;;4935108;29;20394;-82
2023/04/22 04:35:20;;;;;;;9.23;3.20;;;12.00;99.90;;;;;;4956806;28;20512;-80
2023/04/22 04:37:54;;;;;;;5.05;3.35;;;11.90;99.90;;;;;;4947530;29;20130;-80
2023/04/22 04:40:22;;;;;;;7.30;3.45;;;11.80;99.90;;;;;;4951732;29;20047;-82
2023/04/22 04:43:01;;;;;;;8.18;3.50;;;11.70;99.90;;;;;;4931475;29;20138;-83
2023/04/22 04:45:45;;;;;;;6.82;3.30;;;11.50;99.90;;;;;;4937016;29;20051;-84
2023/04/22 04:48:14;;;;;;;9.73;3.28;;;11.40;99.90;;;;;;4934050;29;20067;-78
2023/04/22 04:50:48;;;;;;;11.80;3.60;;;11.40;99.90;;;;;;4933531;29;20082;-85
2023/04/22 04:53:18;;;;;;;8.20;3.67;;;11.30;99.90;;;;;;4926109;29;20059;-77
2023/04/22 04:55:47;;;;;;;8.95;3.55;;;11.30;99.90;;;;;;4944574;29;20055;-76
2023/04/22 04:58:21;;;;;;;10.60;3.15;;;11.30;99.90;;;;;;4954037;29;20039;-84
2023/04/22 05:00:58;;;;;;;11.80;3.17;;;11.30;99.90;;;;;;4923132;29;20146;-76
2023/04/22 05:03:26;;;;;;;8.98;3.13;;;11.20;99.90;;;;;;4951526;29;20051;-82
2023/04/22 05:05:56;;;;;;;7.78;2.90;;;11.30;99.90;;;;;;4923374;28;20054;-81
2023/04/22 05:08:26;;;;;;;4.70;2.97;;;11.40;99.90;;;;;;4954848;28;20043;-81
2023/04/22 05:10:59;;;;;;;10.43;3.08;;;11.40;99.90;;;;;;4954643;28;20157;-83
2023/04/22 05:13:28;;;;;;;8.95;3.47;;;11.40;99.90;;;;;;4937000;29;20062;-82
2023/04/22 05:15:58;;;;;;;9.13;4.05;;;11.40;99.90;;;;;;4950622;29;20043;-79
2023/04/22 05:18:26;;;;;;;12.40;3.42;;;11.40;99.90;;;;;;4933652;29;20090;-81
2023/04/22 05:20:57;;;;;;;7.00;3.20;;;11.50;99.90;;;;;;4946983;28;20508;-82
2023/04/22 05:23:27;;;;;;;7.85;3.25;;;11.50;99.90;;;;;;4933480;29;20047;-83
2023/04/22 05:25:57;;;;;;;6.72;3.40;;;11.60;99.90;;;;;;4933310;29;20078;-83
2023/04/22 05:28:25;;;;;;;6.28;3.30;;;11.60;99.90;;;;;;4916754;29;20051;-83
2023/04/22 05:30:56;;;;;;;10.50;3.63;;;12.00;99.90;;;;;;4934012;29;20053;-84
2023/04/22 05:33:24;;;;;;;9.88;3.65;;;12.60;99.90;;;;;;4949802;29;20146;-86
2023/04/22 05:35:52;;;;;;;6.18;3.15;;;13.20;99.90;;;;;;4913793;29;20044;-84
2023/04/22 05:38:20;;;;;;;12.70;2.95;;;13.90;99.90;;;;;;4934100;29;20043;-84
2023/04/22 05:40:50;;;;;;;13.43;5.45;;;14.50;99.90;;;;;;4932398;29;20121;-83
2023/04/22 05:43:18;;;;;;;9.15;3.83;;;15.10;99.90;;;;;;4951896;29;20055;-84
2023/04/22 05:45:51;;;;;;;13.52;3.53;;;15.60;99.90;;;;;;4952564;29;20047;-83
2023/04/22 05:48:21;;;;;;;44.92;4.55;;;16.00;98.30;;;;;;4932966;29;20091;-83
2023/04/22 05:51:08;;;;;;;10.77;4.00;;;16.40;96.40;;;;;;4936715;29;20142;-85
2023/04/22 05:53:36;;;;;;;9.45;3.10;;;16.80;93.90;;;;;;4949665;29;20043;-79
2023/04/22 05:56:06;;;;;;;7.50;3.08;;;16.90;91.50;;;;;;4934694;29;20055;-80
2023/04/22 05:58:36;;;;;;;5.55;2.67;;;17.10;90.20;;;;;;4917678;29;20058;-82
2023/04/22 06:01:11;;;;;;;7.80;2.80;;;17.40;87.30;;;;;;4945434;28;20542;-81
2023/04/22 06:03:52;;;;;;;5.75;2.75;;;17.30;85.70;;;;;;4915996;29;20145;-82
2023/04/22 06:06:20;;;;;;;7.18;3.00;;;17.40;83.20;;;;;;4932674;29;20134;-82
2023/04/22 06:08:48;;;;;;;7.68;2.55;;;17.50;82.60;;;;;;4920179;29;20752;-81
2023/04/22 06:11:18;;;;;;;5.00;2.83;;;17.40;82.90;;;;;;4950368;29;20143;-85
2023/04/22 06:13:46;;;;;;;8.15;3.30;;;17.70;82.60;;;;;;4914996;29;20054;-83
2023/04/22 06:16:14;;;;;;;9.30;3.50;;;18.00;81.10;;;;;;4937417;29;20059;-88
2023/04/22 06:18:45;;;;;;;14.38;3.30;;;18.50;79.40;;;;;;4932638;29;20047;-89
2023/04/22 06:21:16;;;;;;;5.40;2.63;;;18.90;77.20;;;;;;4948567;28;20572;-88
2023/04/22 06:23:43;;;;;;;6.57;2.55;;;19.10;74.10;;;;;;4934678;29;20047;-88
2023/04/22 06:26:12;;;;;;;7.38;2.63;;;19.20;73.60;;;;;;4917578;29;20528;-90
2023/04/22 06:28:45;;;;;;;7.80;2.88;;;19.50;72.40;;;;;;4940142;28;20052;-90
2023/04/22 06:31:18;;;;;;;7.70;2.92;;;19.70;71.20;;;;;;4928533;29;20098;-90
2023/04/22 06:33:46;;;;;;;12.35;3.50;;;20.10;69.30;;;;;;4922249;28;20154;-90
2023/04/22 06:36:17;;;;;;;9.05;3.38;;;20.20;68.30;;;;;;4948051;28;20039;-90
2023/04/22 06:38:53;;;;;;;8.43;2.42;;;20.40;67.70;;;;;;4922332;28;20150;-89
2023/04/22 06:41:24;;;;;;;6.13;2.40;;;20.40;66.30;;;;;;4943799;28;20051;-84
2023/04/22 06:43:57;;;;;;;4.50;2.50;;;20.20;66.00;;;;;;4947458;28;20051;-86
2023/04/22 06:46:50;;;;;;;10.13;3.13;;;20.30;66.00;;;;;;4935199;28;20063;-86
2023/04/22 06:49:38;;;;;;;6.07;2.60;;;20.40;65.40;;;;;;4950131;29;20428;-88
2023/04/22 06:52:35;;;;;;;4.45;2.97;;;20.60;64.90;;;;;;4932655;28;20214;-83
2023/04/22 06:55:04;;;;;;;8.18;3.20;;;20.90;63.70;;;;;;4955882;28;20051;-83
2023/04/22 06:57:33;;;;;;;9.85;2.92;;;21.10;63.30;;;;;;4944702;28;20487;-81
2023/04/22 07:00:03;;;;;;;5.22;3.42;;;21.20;62.60;;;;;;4961697;28;20381;-83
2023/04/22 07:02:32;;;;;;;5.65;2.65;;;21.60;62.10;;;;;;4935837;28;20099;-81
2023/04/22 07:05:00;;;;;;;10.98;4.00;;;21.80;60.70;;;;;;4933154;29;20098;-84
2023/04/22 07:07:28;;;;;;;12.25;3.67;;;22.20;59.80;;;;;;4949363;28;20054;-89
2023/04/22 07:09:56;;;;;;;8.98;3.05;;;22.30;59.10;;;;;;4937359;29;20070;-80
2023/04/22 07:12:27;;;;;;;27.48;3.92;;;22.60;58.80;;;;;;4934062;29;20054;-80
2023/04/22 07:14:55;;;;;;;16.33;3.85;;;22.60;58.30;;;;;;4932914;29;20428;-79
2023/04/22 07:17:27;;;;;;;6.57;2.83;;;22.70;57.60;;;;;;4918562;29;20043;-78
2023/04/22 07:19:55;;;;;;;12.10;2.60;;;22.70;57.40;;;;;;4934347;29;20059;-78
2023/04/22 07:22:22;;;;;;;18.63;3.63;;;22.80;56.90;;;;;;4945208;28;20118;-79
2023/04/22 07:24:49;;;;;;;20.92;4.40;;;22.70;57.20;;;;;;4954988;29;20059;-81
2023/04/22 07:27:17;;;;;;;9.38;2.88;;;22.90;56.70;;;;;;4937317;29;20051;-81
2023/04/22 07:29:44;;;;;;;12.70;3.10;;;23.20;56.30;;;;;;4937366;29;20058;-81
2023/04/22 07:32:12;;;;;;;11.02;2.83;;;23.70;55.80;;;;;;4938418;29;20059;-81
2023/04/22 07:34:41;;;;;;;14.38;2.97;;;23.90;55.20;;;;;;4935765;29;20063;-80
2023/04/22 07:37:08;;;;;;;8.65;3.22;;;24.30;54.20;;;;;;4934749;29;20063;-81
2023/04/22 07:39:35;;;;;;;5.35;3.15;;;24.20;54.00;;;;;;4938592;29;20091;-81
2023/04/22 07:42:03;;;;;;;5.63;2.83;;;24.30;53.70;;;;;;4935258;29;20047;-82
2023/04/22 07:44:33;;;;;;;8.55;3.00;;;24.60;53.30;;;;;;4933615;29;20051;-82
2023/04/22 07:47:01;;;;;;;8.43;3.35;;;24.70;52.90;;;;;;4935164;29;20050;-80
2023/04/22 07:49:28;;;;;;;6.00;3.20;;;24.80;53.10;;;;;;4937109;28;20052;-82
2023/04/22 07:51:57;;;;;;;9.60;3.58;;;24.90;52.90;;;;;;4933077;29;20052;-82
2023/04/22 07:54:25;;;;;;;9.68;2.95;;;25.00;52.40;;;;;;4934261;29;20047;-82
2023/04/22 07:56:52;;;;;;;11.93;3.08;;;25.20;51.90;;;;;;4934323;29;20508;-81
2023/04/22 07:59:19;;;;;;;10.63;3.45;;;25.50;51.00;;;;;;4947458;29;20119;-81
2023/04/22 08:01:47;;;;;;;9.30;2.83;;;25.70;51.20;;;;;;4936699;29;20078;-82
2023/04/22 08:04:14;;;;;;;9.95;3.58;;;25.80;50.60;;;;;;4952048;29;20187;-82
2023/04/22 08:06:42;;;;;;;10.85;3.65;;;26.20;50.40;;;;;;4933519;29;20051;-80
2023/04/22 08:09:10;;;;;;;11.98;3.50;;;26.40;50.00;;;;;;4951482;29;20054;-80
2023/04/22 08:11:38;;;;;;;10.48;3.00;;;26.40;49.80;;;;;;4935798;28;20055;-80
2023/04/22 08:14:06;;;;;;;10.65;4.13;;;26.50;49.40;;;;;;4953942;29;20051;-81
2023/04/22 08:16:33;;;;;;;10.75;5.32;;;26.70;49.40;;;;;;4930336;29;20338;-81
2023/04/22 08:19:01;;;;;;;7.18;2.47;;;27.00;49.00;;;;;;4944965;29;20452;-82
2023/04/22 08:21:28;;;;;;;7.60;2.63;;;27.10;48.40;;;;;;4951926;29;20054;-82
2023/04/22 08:23:56;;;;;;;8.27;3.42;;;27.10;47.90;;;;;;4931756;29;20058;-82
2023/04/22 08:26:25;;;;;;;11.85;2.75;;;27.40;47.80;;;;;;4951870;28;20406;-83
2023/04/22 08:28:52;;;;;;;14.18;3.22;;;27.40;47.90;;;;;;4916985;29;20516;-89
2023/04/22 08:31:20;;;;;;;12.70;2.80;;;27.50;47.40;;;;;;4928548;29;20059;-87
2023/04/22 08:33:47;;;;;;;13.60;2.92;;;27.40;47.80;;;;;;4935779;29;20544;-81
2023/04/22 08:36:15;;;;;;;9.48;2.63;;;27.10;47.30;;;;;;4926997;29;20062;-82
2023/04/22 08:38:42;;;;;;;12.90;3.08;;;27.10;47.60;;;;;;4935038;29;20052;-82
2023/04/22 08:41:10;;;;;;;7.93;2.55;;;27.20;47.20;;;;;;4934712;29;20138;-84
2023/04/22 08:43:39;;;;;;;11.43;2.80;;;27.50;47.20;;;;;;4922513;29;20504;-85
2023/04/22 08:46:07;;;;;;;27.63;3.42;;;27.60;46.90;;;;;;4948256;28;20456;-84
2023/04/22 08:48:34;;;;;;;12.20;2.80;;;27.80;46.20;;;;;;4936469;29;20122;-85
2023/04/22 08:51:02;;;;;;;13.52;3.10;;;28.10;46.40;;;;;;4954319;29;20063;-90
2023/04/22 08:53:31;;;;;;;8.30;2.55;;;28.30;45.90;;;;;;4953379;28;20046;-89
2023/04/22 08:56:00;;;;;;;12.93;2.88;;;28.60;45.70;;;;;;4943175;29;20051;-89
2023/04/22 08:58:28;;;;;;;11.63;2.58;;;28.80;45.70;;;;;;4921732;29;20106;-87
2023/04/22 09:00:58;;;;;;;4.38;2.08;;;28.90;45.10;;;;;;4942731;29;20664;-87
2023/04/22 09:03:26;;;;;;;14.45;2.88;;;28.90;45.20;;;;;;4932455;29;20074;-86
2023/04/22 09:05:55;;;;;;;6.15;2.63;;;29.30;44.70;;;;;;4953456;29;20047;-88
2023/04/22 09:08:23;;;;;;;7.72;2.22;;;29.70;44.20;;;;;;4937153;29;20059;-87
2023/04/22 09:10:50;;;;;;;11.48;2.42;;;30.00;43.70;;;;;;4949286;29;20051;-88
2023/04/22 09:13:19;;;;;;;3.25;1.98;;;30.00;43.10;;;;;;4936999;29;20071;-88
2023/04/22 09:15:46;;;;;;;4.28;2.30;;;30.00;42.70;;;;;;4960707;28;20418;-88
2023/04/22 09:18:17;;;;;;;8.18;2.10;;;30.00;42.90;;;;;;4959408;28;20074;-84
2023/04/22 09:20:48;;;;;;;10.07;3.28;;;30.10;42.80;;;;;;4944635;28;20059;-85
2023/04/22 09:23:16;;;;;;;9.57;2.10;;;30.00;42.80;;;;;;4944512;28;20599;-84
2023/04/22 09:25:46;;;;;;;7.80;2.58;;;30.30;42.30;;;;;;4948718;28;20492;-84
2023/04/22 09:28:18;;;;;;;7.32;2.03;;;30.40;42.00;;;;;;4946877;28;20055;-84
2023/04/22 09:30:48;;;;;;;6.07;2.47;;;30.50;42.10;;;;;;4938161;28;20051;-84
2023/04/22 09:33:17;;;;;;;9.00;2.30;;;30.50;41.60;;;;;;4934129;29;20062;-82
2023/04/22 09:35:44;;;;;;;6.30;2.00;;;30.70;42.20;;;;;;4934018;29;20079;-82
2023/04/22 09:38:13;;;;;;;23.48;2.10;;;30.90;41.70;;;;;;4939780;28;20051;-82
2023/04/22 09:40:43;;;;;;;5.72;2.10;;;30.60;40.90;;;;;;4936961;29;20131;-85
2023/04/22 09:43:11;;;;;;;8.15;1.90;;;30.50;40.90;;;;;;4949666;28;20109;-84
2023/04/22 09:45:42;;;;;;;4.70;1.67;;;30.50;41.00;;;;;;4951470;29;20532;-86
2023/04/22 09:48:12;;;;;;;8.20;2.00;;;30.60;41.00;;;;;;4948982;29;20055;-84
2023/04/22 09:50:45;;;;;;;4.15;1.63;;;31.00;41.10;;;;;;4933905;29;20055;-83
2023/04/22 09:53:16;;;;;;;16.23;1.80;;;31.30;40.30;;;;;;4948202;28;20062;-82
2023/04/22 09:55:48;;;;;;;6.20;1.87;;;31.30;39.80;;;;;;4951042;29;20070;-80
2023/04/22 09:58:16;;;;;;;;;;;31.40;39.50;;;;;;4933284;29;20138;-80
2023/04/22 10:00:49;;;;;;;6.47;1.40;;;31.30;39.60;;;;;;4933780;29;19933;-81
2023/04/22 10:03:18;;;;;;;2.67;1.67;;;31.30;39.80;;;;;;4951463;29;20043;-81
2023/04/22 10:05:47;;;;;;;23.67;2.35;;;31.30;39.60;;;;;;4931669;29;20439;-79
2023/04/22 10:08:17;;;;;;;6.93;1.52;;;31.40;39.70;;;;;;4939185;29;20389;-80
2023/04/22 10:10:45;;;;;;;3.85;1.60;;;31.40;39.20;;;;;;4951734;29;20162;-78
2023/04/22 10:13:13;;;;;;;6.78;1.80;;;31.70;38.80;;;;;;4927904;29;20063;-80
2023/04/22 10:15:43;;;;;;;6.45;1.30;;;31.90;38.40;;;;;;4945064;28;20474;-81
2023/04/22 10:18:14;;;;;;;6.72;1.20;;;31.90;38.50;;;;;;4936431;29;20047;-78
2023/04/22 10:20:43;;;;;;;4.30;1.50;;;31.90;38.90;;;;;;4930484;28;20051;-79
2023/04/22 10:23:19;;;;;;;7.32;1.60;;;31.80;39.40;;;;;;4951986;28;20043;-80
2023/04/22 10:25:50;;;;;;;4.10;0.95;;;32.10;38.80;;;;;;4930694;29;20508;-83
2023/04/22 10:28:19;;;;;;;4.47;1.25;;;31.70;39.00;;;;;;4951064;29;20051;-81
2023/04/22 10:30:48;;;;;;;8.32;1.60;;;31.60;39.10;;;;;;4934847;28;20051;-82
2023/04/22 10:33:38;;;;;;;3.78;1.42;;;31.70;38.90;;;;;;4935902;28;20472;-83
2023/04/22 10:36:09;;;;;;;4.15;1.83;;;32.10;39.10;;;;;;4930197;29;20079;-81
2023/04/22 10:38:39;;;;;;;6.07;1.52;;;32.20;38.50;;;;;;4940564;28;20054;-79
2023/04/22 10:41:07;;;;;;;7.63;1.33;;;32.20;38.50;;;;;;4939711;29;20523;-79
2023/04/22 10:43:46;;;;;;;4.10;1.10;;;32.30;37.90;;;;;;4949887;28;20046;-79
2023/04/22 10:47:00;;;;;;;2.85;1.02;;;32.40;37.90;;;;;;4942870;28;20629;-78
2023/04/22 10:49:33;;;;;;;6.72;1.20;;;31.80;38.00;;;;;;4918289;29;20047;-78
2023/04/22 10:52:04;;;;;;;4.05;1.23;;;31.20;39.10;;;;;;4950184;28;20062;-81
2023/04/22 10:55:01;;;;;;;8.52;1.50;;;30.80;39.20;;;;;;4946902;28;20062;-82
2023/04/22 10:57:40;;;;;;;6.30;1.15;;;30.50;39.50;;;;;;4932834;29;20058;-82
2023/04/22 11:00:32;;;;;;;4.47;1.90;;;30.10;40.20;;;;;;4949165;28;20047;-81
2023/04/22 11:03:16;;;;;;;6.50;1.27;;;29.90;40.50;;;;;;4899371;29;20048;-82
2023/04/22 11:05:44;;;;;;;8.95;1.92;;;29.50;40.40;;;;;;4945775;29;20055;-79
2023/04/22 11:08:29;;;;;;;12.95;1.70;;;29.40;41.20;;;;;;4952129;28;20090;-80
2023/04/22 11:11:12;;;;;;;56.38;3.20;;;29.60;41.30;;;;;;4956848;28;20416;-80
2023/04/22 11:13:42;;;;;;;15.70;1.80;;;30.30;40.60;;;;;;4940424;28;20063;-81
2023/04/22 11:16:10;;;;;;;10.18;1.30;;;30.50;40.30;;;;;;4950701;28;20055;-80
2023/04/22 11:18:38;;;;;;;14.50;1.95;;;31.00;39.90;;;;;;4961542;28;20051;-80
2023/04/22 11:21:07;;;;;;;10.10;1.42;;;31.40;39.50;;;;;;4930774;29;20051;-81
2023/04/22 11:23:35;;;;;;;5.63;1.13;;;32.20;38.90;;;;;;4910750;29;20146;-80
2023/04/22 11:26:06;;;;;;;18.80;1.80;;;32.60;38.70;;;;;;4942112;28;20472;-82
2023/04/22 11:28:33;;;;;;;4.85;2.33;;;33.00;38.10;;;;;;4930852;29;20122;-82
2023/04/22 11:31:05;;;;;;;4.82;2.13;;;32.90;38.10;;;;;;4930665;29;20049;-82
2023/04/22 11:33:33;;;;;;;;;;;33.10;37.80;;;;;;4941277;28;20059;-82
2023/04/22 11:36:00;;;;;;;23.15;2.00;;;33.30;37.50;;;;;;4951386;28;19956;-81
2023/04/22 11:38:27;;;;;;;9.63;1.60;;;33.30;37.70;;;;;;4948187;29;20674;-83
2023/04/22 11:40:56;;;;;;;8.77;1.67;;;33.30;37.70;;;;;;4949220;29;20126;-84
2023/04/22 11:43:25;;;;;;;4.22;1.40;;;33.40;37.60;;;;;;4932547;29;20407;-84
2023/04/22 11:45:56;;;;;;;8.73;1.65;;;33.60;37.70;;;;;;4946944;29;20063;-83
2023/04/22 11:48:23;;;;;;;9.23;1.33;;;33.90;37.30;;;;;;4944047;29;20875;-84
2023/04/22 11:51:06;;;;;;;6.68;1.77;;;33.90;37.00;;;;;;4953104;29;20544;-82
2023/04/22 11:53:34;;;;;;;5.47;1.85;;;33.90;37.50;;;;;;4918511;29;20115;-84
2023/04/22 11:56:03;;;;;;;3.92;1.50;;;34.00;36.80;;;;;;4948796;29;20134;-84
2023/04/22 11:58:32;;;;;;;6.57;1.35;;;33.60;37.20;;;;;;4949591;29;20050;-85
2023/04/22 12:01:00;;;;;;;10.50;1.80;;;33.60;37.40;;;;;;4955288;28;20050;-84
2023/04/22 12:03:29;;;;;;;12.82;1.38;;;33.80;37.20;;;;;;4953712;29;20146;-83
2023/04/22 12:05:58;;;;;;;8.80;1.73;;;33.70;36.80;;;;;;4932244;29;20050;-85
2023/04/22 12:08:30;;;;;;;9.27;2.08;;;33.60;36.90;;;;;;4923798;28;20051;-83
2023/04/22 12:11:00;;;;;;;7.55;1.50;;;33.60;37.10;;;;;;4958415;28;20538;-83
2023/04/22 12:13:33;;;;;;;6.43;1.52;;;33.70;36.90;;;;;;4950847;28;20047;-83
2023/04/22 12:16:03;;;;;;;9.07;1.45;;;33.60;37.30;;;;;;4934524;29;20473;-83
2023/04/22 12:18:34;;;;;;;8.98;1.75;;;33.70;36.90;;;;;;4946779;28;20760;-83
2023/04/22 12:21:08;;;;;;;12.13;1.63;;;33.90;36.90;;;;;;4956045;28;20070;-87
2023/04/22 12:23:42;;;;;;;8.23;1.60;;;33.70;36.80;;;;;;4935196;29;20530;-86
2023/04/22 12:26:10;;;;;;;13.00;1.50;;;33.80;36.60;;;;;;4933020;29;20051;-84
2023/04/22 12:28:39;;;;;;;6.43;1.67;;;33.90;36.50;;;;;;4929431;29;20070;-81
2023/04/22 12:31:07;;;;;;;5.22;1.48;;;34.10;36.40;;;;;;4934152;28;20062;-81
2023/04/22 12:33:36;;;;;;;4.32;2.15;;;33.90;36.50;;;;;;4946130;28;20044;-84
2023/04/22 12:36:04;;;;;;;14.30;2.85;;;34.00;36.80;;;;;;4952195;28;20066;-80
2023/04/22 12:38:32;;;;;;;22.70;2.63;;;33.70;36.60;;;;;;4953714;28;20054;-81
2023/04/22 12:41:00;;;;;;;17.15;2.03;;;33.20;36.80;;;;;;4942798;28;20559;-83
2023/04/22 12:43:27;;;;;;;13.00;1.70;;;33.00;37.20;;;;;;4948110;29;20412;-84
2023/04/22 12:46:00;;;;;;;5.70;2.67;;;33.10;36.60;;;;;;4940595;29;20059;-85
2023/04/22 12:48:27;;;;;;;8.77;1.77;;;33.00;36.70;;;;;;4936447;28;20043;-83
2023/04/22 12:50:56;;;;;;;5.68;1.63;;;33.00;36.50;;;;;;4948254;29;20053;-83
2023/04/22 12:53:24;;;;;;;8.07;1.50;;;33.30;36.80;;;;;;4955826;28;20070;-79
2023/04/22 12:55:53;;;;;;;14.13;1.90;;;33.60;36.30;;;;;;4914945;29;20430;-80
2023/04/22 12:58:20;;;;;;;16.27;1.85;;;33.50;36.10;;;;;;4931476;29;20047;-80